Salina Municipal Airport
KSLN : now visible

Airfield :











YOU CAN JOIN US ON...

 
LOGIN :

Register | Disclaimer

   EN    FR    IT 

 









Legend :    VFR   Marginal VFR   IFR   Intensive IFR   Very Intensive IFR
Visi :
Ceiling :
>= 8 km
>= 3000ft
5 to 8 km
1000 to 3000 ft
1500m to 5 km
500 to 1000 ft
800 to 1500m
200 to 500 ft
< 800m
< 200 ft
Symbols :   Thunderstorms  Fog  Heavy snow  Heavy precipitations  Wind > 20 kt







- Airport Elevation : 1288 ft
- IATA code : SLN


KSLN - Salina Municipal

CURRENT METAR :
  • 200853Z AUTO 13010KT 10SM CLR 23/19 A2994 RMK AO2 SLP122 T02330194 58009

EXPIRED METARs :
  • 200753Z AUTO 13006KT 10SM CLR 23/19 A2997 RMK AO2 SLP131 T02330194
  • 200653Z AUTO 13005KT 10SM CLR 23/19 A2997 RMK AO2 SLP133 T02330194

TAF KSLN
Valid from the 20 at 06:00 until the 21 at 06:00 UTC


200520Z 2006/2106 VRB06KT P6SM SCT250
FM201700 16013KT P6SM SCT045 BKN050
FM210200 16013G21KT P6SM BKN010
No reported NOTAMs for that airfield.



MET'MAP, your aeronautical weather chart ! - Copyright ORBIFLY December 2007 - Disclaimer

ORBIFLY MET'MAP TEAM :

Programming & Development : Alexandra Zaïnal
Concept & Development : Baudouin d'Aumeries
Co-Development & Prog : Marc-Olivier Méhu
Technical & hardware support : Manuel Goepfert

Contact : metmap@orbifly.com




SOURCES & CREDITS :

   NOAA       Earth
Advisory